Time;durP1;ratioP1;P1;durP2;ratioP2;P2;SDS_P1;SDS_P2;PMS_P1;PMS_P2;Temp;Humidity;BMP_temperature;BMP_pressure;BME280_temperature;BME280_humidity;BME280_pressure;Samples;Min_cycle;Max_cycle;Signal;HPM_P1;HPM_P2
2023/06/08 00:00:10;;;;;;;16.42;7.20;;;11.90;99.90;;;;;;5010989;28;20033;-76
2023/06/08 00:02:36;;;;;;;13.60;8.38;;;11.80;99.90;;;;;;4992025;28;20118;-74
2023/06/08 00:05:03;;;;;;;21.42;7.85;;;11.90;99.90;;;;;;5012336;28;20080;-74
2023/06/08 00:07:29;;;;;;;17.65;7.47;;;11.80;99.90;;;;;;5011926;28;20037;-75
2023/06/08 00:09:56;;;;;;;13.57;6.90;;;11.90;99.90;;;;;;5010479;28;20044;-73
2023/06/08 00:12:22;;;;;;;14.10;7.60;;;11.90;99.90;;;;;;5009743;28;20516;-73
2023/06/08 00:14:48;;;;;;;13.18;7.25;;;11.90;99.90;;;;;;5011700;28;20080;-74
2023/06/08 00:17:14;;;;;;;16.48;7.63;;;11.90;99.90;;;;;;5008871;28;20041;-76
2023/06/08 00:19:42;;;;;;;13.07;6.88;;;11.90;99.90;;;;;;5011129;28;20119;-76
2023/06/08 00:22:12;;;;;;;14.18;6.57;;;11.90;99.90;;;;;;5010877;28;20112;-73
2023/06/08 00:24:38;;;;;;;13.60;6.82;;;11.90;99.90;;;;;;5010952;28;20140;-74
2023/06/08 00:27:05;;;;;;;15.18;6.95;;;11.90;99.90;;;;;;4994618;28;20073;-75
2023/06/08 00:29:32;;;;;;;14.05;6.25;;;11.90;99.90;;;;;;5011131;28;20571;-75
2023/06/08 00:31:58;;;;;;;13.95;6.55;;;11.80;99.90;;;;;;4995742;28;20038;-76
2023/06/08 00:34:25;;;;;;;14.20;6.65;;;11.80;99.90;;;;;;4994823;28;20120;-76
2023/06/08 00:36:51;;;;;;;17.38;7.05;;;11.80;99.90;;;;;;5029126;28;20132;-74
2023/06/08 00:39:17;;;;;;;16.92;7.13;;;11.80;99.90;;;;;;4995634;28;20115;-75
2023/06/08 00:41:43;;;;;;;15.30;6.60;;;11.80;99.90;;;;;;4995816;28;20084;-76
2023/06/08 00:44:09;;;;;;;16.80;6.68;;;11.80;99.90;;;;;;5009040;28;20073;-76
2023/06/08 00:46:36;;;;;;;15.95;5.68;;;11.80;99.90;;;;;;4990229;28;20077;-76
2023/06/08 00:49:03;;;;;;;17.30;6.63;;;11.80;99.90;;;;;;5011273;28;20041;-75
2023/06/08 00:51:33;;;;;;;12.38;6.93;;;11.80;99.90;;;;;;5010326;28;20409;-74
2023/06/08 00:54:03;;;;;;;12.73;6.70;;;11.80;99.90;;;;;;5012261;28;20033;-75
2023/06/08 00:56:32;;;;;;;14.85;6.30;;;11.80;99.90;;;;;;5008585;28;20050;-76
2023/06/08 00:59:02;;;;;;;16.85;6.28;;;11.80;99.90;;;;;;5012775;28;20474;-75
2023/06/08 01:01:29;;;;;;;13.30;6.55;;;11.70;99.90;;;;;;5023747;28;20048;-77
2023/06/08 01:04:07;;;;;;;17.70;7.18;;;11.70;99.90;;;;;;5008011;28;20098;-77
2023/06/08 01:06:38;;;;;;;15.00;6.72;;;11.70;99.90;;;;;;5010263;28;20029;-76
2023/06/08 01:09:07;;;;;;;20.30;6.47;;;11.70;99.90;;;;;;4995795;28;20042;-77
2023/06/08 01:11:42;;;;;;;17.88;7.25;;;11.70;99.90;;;;;;4993841;28;20040;-77
2023/06/08 01:14:15;;;;;;;41.78;7.35;;;11.70;99.90;;;;;;5010430;28;20088;-77
2023/06/08 01:16:49;;;;;;;18.45;7.07;;;11.60;99.90;;;;;;4994642;28;20041;-77
2023/06/08 01:19:23;;;;;;;16.77;7.07;;;11.60;99.90;;;;;;5005548;28;20068;-77
2023/06/08 01:22:22;;;;;;;15.23;5.93;;;11.60;99.90;;;;;;5009689;28;20096;-76
2023/06/08 01:24:50;;;;;;;18.88;6.82;;;11.60;99.90;;;;;;5010957;28;20211;-77
2023/06/08 01:27:19;;;;;;;17.85;7.03;;;11.60;99.90;;;;;;5008010;28;20092;-77
2023/06/08 01:29:45;;;;;;;15.30;7.63;;;11.60;99.90;;;;;;5005665;28;20042;-76
2023/06/08 01:32:11;;;;;;;26.63;7.40;;;11.60;99.90;;;;;;5011105;28;20620;-76
2023/06/08 01:34:41;;;;;;;19.60;7.13;;;11.60;99.90;;;;;;4994883;28;20056;-77
2023/06/08 01:37:31;;;;;;;16.65;9.75;;;11.60;99.90;;;;;;5007854;28;20044;-77
2023/06/08 01:40:05;;;;;;;17.38;6.97;;;11.60;99.90;;;;;;5009184;28;20072;-77
2023/06/08 01:42:33;;;;;;;23.48;7.05;;;11.60;99.90;;;;;;5000478;28;20080;-77
2023/06/08 01:45:20;;;;;;;15.20;6.85;;;11.60;99.90;;;;;;5010849;28;20068;-77
2023/06/08 01:47:55;;;;;;;17.33;8.30;;;11.60;99.90;;;;;;5010755;28;20235;-77
2023/06/08 01:50:22;;;;;;;11.70;5.97;;;11.60;99.90;;;;;;5007300;28;20037;-76
2023/06/08 01:52:49;;;;;;;15.32;7.22;;;11.60;99.90;;;;;;5006700;28;20188;-77
2023/06/08 01:55:16;;;;;;;18.73;7.43;;;11.60;99.90;;;;;;4994988;28;20041;-77
2023/06/08 01:57:41;;;;;;;15.13;7.20;;;11.60;99.90;;;;;;4989361;28;20038;-77
2023/06/08 02:00:08;;;;;;;15.48;6.20;;;11.60;99.90;;;;;;4994309;28;20052;-77
2023/06/08 02:02:35;;;;;;;15.75;7.00;;;11.60;99.90;;;;;;5009918;28;20068;-77
2023/06/08 02:05:01;;;;;;;12.13;7.30;;;11.70;99.90;;;;;;5007638;28;20443;-77
2023/06/08 02:07:27;;;;;;;17.73;7.75;;;11.70;99.90;;;;;;5010357;28;20029;-77
2023/06/08 02:09:53;;;;;;;13.57;7.68;;;11.60;99.90;;;;;;5010812;28;20033;-76
2023/06/08 02:12:19;;;;;;;16.75;7.97;;;11.60;99.90;;;;;;5009561;28;20041;-79
2023/06/08 02:14:46;;;;;;;14.70;8.05;;;11.50;99.90;;;;;;5010203;28;20045;-78
2023/06/08 02:17:13;;;;;;;15.00;8.63;;;11.60;99.90;;;;;;4994141;28;20481;-78
2023/06/08 02:19:39;;;;;;;13.88;8.48;;;11.60;99.90;;;;;;5012740;28;20124;-73
2023/06/08 02:22:05;;;;;;;15.35;9.27;;;11.60;99.90;;;;;;4996391;28;20113;-77
2023/06/08 02:24:30;;;;;;;14.35;9.20;;;11.60;99.90;;;;;;5009195;28;20358;-77
2023/06/08 02:26:56;;;;;;;16.77;9.10;;;11.60;99.90;;;;;;5004926;28;20124;-78
2023/06/08 02:29:23;;;;;;;17.65;9.68;;;11.60;99.90;;;;;;5010644;28;20628;-78
2023/06/08 02:31:49;;;;;;;17.40;9.70;;;11.60;99.90;;;;;;5007992;28;20470;-77
2023/06/08 02:34:15;;;;;;;16.40;10.15;;;11.50;99.90;;;;;;5007620;28;20068;-77
2023/06/08 02:36:42;;;;;;;17.88;9.65;;;11.50;99.90;;;;;;4994947;28;20045;-76
2023/06/08 02:39:08;;;;;;;14.35;7.95;;;11.60;99.90;;;;;;5010506;28;20044;-76
2023/06/08 02:41:33;;;;;;;12.07;7.78;;;11.60;99.90;;;;;;5007140;28;20056;-77
2023/06/08 02:43:59;;;;;;;14.65;6.38;;;11.60;99.90;;;;;;5010405;28;20124;-77
2023/06/08 02:46:25;;;;;;;11.68;6.53;;;11.60;99.90;;;;;;4992869;28;20049;-77
2023/06/08 02:48:51;;;;;;;14.35;7.60;;;11.50;99.90;;;;;;5008596;28;20049;-77
2023/06/08 02:51:19;;;;;;;15.35;5.75;;;11.50;99.90;;;;;;5009993;28;20045;-77
2023/06/08 02:53:45;;;;;;;7.80;4.32;;;11.50;99.90;;;;;;4993045;28;20125;-77
2023/06/08 02:56:11;;;;;;;8.63;4.22;;;11.50;99.90;;;;;;5005547;28;20049;-74
2023/06/08 02:58:37;;;;;;;6.97;3.70;;;11.40;99.90;;;;;;5008782;28;20454;-78
2023/06/08 03:01:04;;;;;;;4.45;3.00;;;11.40;99.90;;;;;;5008578;28;20044;-77
2023/06/08 03:03:30;;;;;;;7.03;3.08;;;11.40;99.90;;;;;;4994057;28;20041;-77
2023/06/08 03:05:58;;;;;;;3.58;2.53;;;11.30;99.90;;;;;;5009768;28;20057;-77
2023/06/08 03:08:28;;;;;;;4.90;2.63;;;11.30;99.90;;;;;;5010009;28;20053;-77
2023/06/08 03:10:54;;;;;;;7.93;2.72;;;11.30;99.90;;;;;;5010028;28;20041;-78
2023/06/08 03:13:21;;;;;;;2.72;2.35;;;11.30;99.90;;;;;;5013714;28;20057;-78
2023/06/08 03:15:47;;;;;;;3.15;1.67;;;11.30;99.90;;;;;;5012060;28;20133;-76
2023/06/08 03:18:13;;;;;;;2.65;1.33;;;11.30;99.90;;;;;;5013156;28;20063;-77
2023/06/08 03:20:40;;;;;;;1.92;1.20;;;11.30;99.90;;;;;;5011568;28;20049;-77
2023/06/08 03:23:07;;;;;;;2.28;1.13;;;11.30;99.90;;;;;;5013448;28;20124;-75
2023/06/08 03:25:36;;;;;;;1.55;0.98;;;11.30;99.90;;;;;;5013277;28;20498;-72
2023/06/08 03:28:02;;;;;;;1.35;0.73;;;11.30;99.90;;;;;;4998143;28;20056;-77
2023/06/08 03:30:28;;;;;;;1.50;0.93;;;11.20;99.90;;;;;;4997100;28;20417;-76
2023/06/08 03:32:55;;;;;;;0.77;0.50;;;11.20;99.90;;;;;;5013542;28;20037;-73
2023/06/08 03:35:20;;;;;;;1.65;0.73;;;11.20;99.90;;;;;;5012242;28;20470;-76
2023/06/08 03:37:46;;;;;;;1.10;0.55;;;11.20;99.90;;;;;;4998075;28;20109;-77
2023/06/08 03:40:12;;;;;;;2.15;0.75;;;11.20;99.90;;;;;;4995876;28;20455;-78
2023/06/08 03:42:38;;;;;;;1.67;1.02;;;11.10;99.90;;;;;;5012470;28;20084;-76
2023/06/08 03:45:04;;;;;;;1.05;0.63;;;11.10;99.90;;;;;;5009346;28;20034;-77
2023/06/08 03:47:31;;;;;;;0.93;0.40;;;11.10;99.90;;;;;;5029135;28;20063;-79
2023/06/08 03:49:57;;;;;;;0.57;0.20;;;11.00;99.90;;;;;;5010370;28;20038;-77
2023/06/08 03:52:23;;;;;;;0.50;0.30;;;11.00;99.90;;;;;;5013684;28;20043;-77
2023/06/08 03:54:49;;;;;;;0.38;0.30;;;11.00;99.90;;;;;;5009614;28;20158;-77
2023/06/08 03:57:15;;;;;;;0.50;0.40;;;11.00;99.90;;;;;;5010652;28;20077;-78
2023/06/08 03:59:41;;;;;;;0.77;0.73;;;10.90;99.90;;;;;;5012908;28;20041;-78
2023/06/08 04:02:07;;;;;;;0.47;0.30;;;11.00;99.90;;;;;;4996446;28;20045;-79
2023/06/08 04:04:34;;;;;;;0.85;0.30;;;11.00;99.90;;;;;;5012731;28;20042;-78
2023/06/08 04:07:01;;;;;;;0.25;0.25;;;11.00;99.90;;;;;;5010270;28;20042;-77
2023/06/08 04:09:30;;;;;;;1.27;0.68;;;11.00;99.90;;;;;;5010473;28;20046;-77
2023/06/08 04:11:56;;;;;;;0.05;0.00;;;11.00;99.90;;;;;;4990996;28;20030;-77
2023/06/08 04:14:22;;;;;;;0.13;0.10;;;11.00;99.90;;;;;;5013074;28;20041;-78
2023/06/08 04:16:48;;;;;;;2.45;0.47;;;11.00;99.90;;;;;;5008402;28;20280;-78
2023/06/08 04:19:14;;;;;;;0.08;0.03;;;11.00;99.90;;;;;;5008744;28;20041;-78
2023/06/08 04:21:40;;;;;;;0.32;0.20;;;11.10;99.90;;;;;;5008982;28;20041;-78
2023/06/08 04:24:06;;;;;;;0.38;0.10;;;11.10;99.90;;;;;;5009300;28;20465;-78
2023/06/08 04:26:32;;;;;;;1.05;0.70;;;11.10;99.90;;;;;;5009338;28;20069;-78
2023/06/08 04:28:58;;;;;;;0.82;0.43;;;11.10;99.90;;;;;;4996419;28;20041;-78
2023/06/08 04:31:24;;;;;;;0.10;0.10;;;11.10;99.90;;;;;;5005962;28;20034;-78
2023/06/08 04:33:49;;;;;;;0.20;0.10;;;11.10;99.90;;;;;;5009640;28;20053;-78
2023/06/08 04:36:16;;;;;;;1.90;0.65;;;11.10;99.90;;;;;;5007646;28;20037;-77
2023/06/08 04:38:42;;;;;;;0.17;0.17;;;11.10;99.90;;;;;;5010966;28;20045;-77
2023/06/08 04:41:08;;;;;;;0.00;0.00;;;11.10;99.90;;;;;;5006930;28;20447;-78
2023/06/08 04:43:37;;;;;;;0.30;0.20;;;11.20;99.90;;;;;;5010507;28;20041;-77
2023/06/08 04:46:04;;;;;;;0.50;0.50;;;11.20;99.90;;;;;;5005677;28;20050;-78
2023/06/08 04:48:33;;;;;;;0.47;0.47;;;11.10;99.90;;;;;;5009592;28;20493;-78
2023/06/08 04:51:01;;;;;;;0.20;0.20;;;11.20;99.90;;;;;;4995387;28;20477;-78
2023/06/08 04:53:27;;;;;;;0.55;0.32;;;11.20;99.90;;;;;;5012567;28;20176;-79
2023/06/08 04:55:57;;;;;;;0.95;0.35;;;11.30;99.90;;;;;;5008504;28;20508;-78
2023/06/08 04:58:26;;;;;;;0.30;0.20;;;11.30;99.90;;;;;;5011908;28;20041;-79
2023/06/08 05:00:52;;;;;;;0.52;0.40;;;11.30;99.90;;;;;;4994869;28;20060;-77
2023/06/08 05:03:20;;;;;;;5.78;0.65;;;11.40;99.90;;;;;;5013287;28;20063;-79
2023/06/08 05:05:46;;;;;;;0.85;0.47;;;11.30;99.90;;;;;;5010974;28;20049;-79
2023/06/08 05:08:11;;;;;;;1.15;0.65;;;11.30;99.90;;;;;;5012112;28;20117;-79
2023/06/08 05:10:37;;;;;;;0.52;0.30;;;11.30;99.90;;;;;;5010017;28;20184;-78
2023/06/08 05:13:03;;;;;;;0.47;0.40;;;11.30;99.90;;;;;;4995015;28;20049;-77
2023/06/08 05:15:30;;;;;;;0.50;0.15;;;11.30;99.90;;;;;;5009400;28;20096;-77
2023/06/08 05:17:57;;;;;;;0.15;0.15;;;11.30;99.90;;;;;;5008254;28;20038;-78
2023/06/08 05:20:24;;;;;;;1.10;0.57;;;11.30;99.90;;;;;;5008670;28;20050;-78
2023/06/08 05:22:50;;;;;;;0.17;0.17;;;11.40;99.90;;;;;;4990603;28;20056;-78
2023/06/08 05:25:16;;;;;;;0.20;0.20;;;11.50;99.90;;;;;;5009044;28;20037;-79
2023/06/08 05:27:42;;;;;;;0.28;0.20;;;11.60;99.90;;;;;;5010125;28;20433;-80
2023/06/08 05:30:09;;;;;;;1.08;0.73;;;11.70;99.90;;;;;;5011061;28;20037;-78
2023/06/08 05:32:34;;;;;;;0.13;0.13;;;11.80;99.90;;;;;;5011115;28;20125;-79
2023/06/08 05:35:00;;;;;;;0.28;0.28;;;11.90;99.90;;;;;;5008267;28;20125;-80
2023/06/08 05:37:26;;;;;;;0.95;0.88;;;11.90;99.90;;;;;;5009138;28;20072;-79
2023/06/08 05:39:52;;;;;;;0.32;0.32;;;11.90;99.90;;;;;;5011755;28;20176;-79
2023/06/08 05:42:19;;;;;;;0.40;0.40;;;11.90;99.90;;;;;;5008229;28;20115;-79
2023/06/08 05:44:45;;;;;;;1.90;0.98;;;11.90;99.90;;;;;;5006365;28;20041;-79
2023/06/08 05:47:10;;;;;;;0.22;0.22;;;11.90;99.90;;;;;;5009479;28;20072;-79
2023/06/08 05:49:36;;;;;;;0.35;0.35;;;11.90;99.90;;;;;;5010913;28;20037;-79
2023/06/08 05:52:02;;;;;;;0.28;0.20;;;12.00;99.90;;;;;;5011576;28;20060;-78
2023/06/08 05:54:28;;;;;;;0.65;0.45;;;12.10;99.90;;;;;;4991083;28;20117;-78
2023/06/08 05:56:53;;;;;;;0.45;0.30;;;12.30;99.90;;;;;;5006545;28;20336;-80
2023/06/08 05:59:19;;;;;;;1.65;0.00;;;12.30;99.90;;;;;;4990947;28;20049;-78
2023/06/08 06:01:45;;;;;;;0.57;0.28;;;12.40;99.90;;;;;;5004441;28;20045;-79
2023/06/08 06:04:11;;;;;;;1.77;1.00;;;12.60;99.90;;;;;;5003763;28;20049;-81
2023/06/08 06:06:37;;;;;;;0.57;0.30;;;12.60;99.90;;;;;;5003807;28;20482;-79
2023/06/08 06:09:03;;;;;;;0.70;0.70;;;12.70;99.90;;;;;;5004402;28;20047;-79
2023/06/08 06:11:30;;;;;;;0.10;0.08;;;12.70;99.90;;;;;;5004983;28;20041;-79
2023/06/08 06:13:57;;;;;;;0.30;0.20;;;12.80;99.90;;;;;;5008075;28;20128;-78
2023/06/08 06:16:23;;;;;;;0.10;0.10;;;12.90;99.90;;;;;;5011738;28;20057;-80
2023/06/08 06:18:50;;;;;;;3.00;1.48;;;13.00;99.90;;;;;;5012585;28;20502;-81
2023/06/08 06:21:16;;;;;;;0.35;0.35;;;13.10;99.90;;;;;;5008295;28;20049;-81
2023/06/08 06:23:44;;;;;;;2.30;1.35;;;13.20;99.90;;;;;;5012734;28;20041;-82
2023/06/08 06:26:11;;;;;;;0.03;0.03;;;13.20;99.90;;;;;;5007843;28;20038;-80
2023/06/08 06:28:38;;;;;;;0.13;0.13;;;13.30;99.90;;;;;;4996155;28;20042;-75
2023/06/08 06:31:04;;;;;;;0.22;0.15;;;13.30;99.90;;;;;;5008905;28;20070;-76
2023/06/08 06:33:30;;;;;;;1.40;0.35;;;13.40;99.90;;;;;;5007086;28;20037;-77
2023/06/08 06:35:56;;;;;;;0.47;0.38;;;13.40;99.90;;;;;;5008882;28;20037;-80
2023/06/08 06:38:22;;;;;;;0.20;0.20;;;13.50;99.90;;;;;;4993581;28;20224;-81
2023/06/08 06:40:50;;;;;;;0.25;0.20;;;13.50;99.90;;;;;;4994401;28;20405;-81
2023/06/08 06:43:16;;;;;;;0.20;0.20;;;13.60;99.90;;;;;;5010924;28;20061;-78
2023/06/08 06:45:42;;;;;;;0.10;0.10;;;13.70;99.90;;;;;;5005392;28;20195;-80
2023/06/08 06:48:08;;;;;;;0.20;0.10;;;13.80;99.90;;;;;;5013459;28;20128;-82
2023/06/08 06:50:34;;;;;;;1.17;0.65;;;13.90;99.90;;;;;;5012613;28;20513;-81
2023/06/08 06:52:59;;;;;;;1.00;0.45;;;14.00;99.90;;;;;;5013780;28;20084;-80
2023/06/08 06:55:25;;;;;;;0.35;0.32;;;14.20;99.90;;;;;;5016655;28;20131;-83
2023/06/08 06:57:52;;;;;;;0.63;0.57;;;14.30;99.90;;;;;;5015662;28;20041;-79
2023/06/08 07:00:19;;;;;;;1.40;0.40;;;14.40;99.90;;;;;;5013501;28;20042;-81
2023/06/08 07:02:45;;;;;;;0.43;0.28;;;14.50;99.90;;;;;;5011189;28;20048;-82
2023/06/08 07:05:11;;;;;;;0.75;0.57;;;14.60;99.90;;;;;;5009860;28;20037;-80
2023/06/08 07:07:37;;;;;;;0.30;0.30;;;14.70;99.90;;;;;;5029969;28;20060;-82
2023/06/08 07:10:03;;;;;;;1.13;0.68;;;14.70;99.90;;;;;;5015503;28;20489;-80
2023/06/08 07:12:30;;;;;;;1.45;1.05;;;14.80;99.90;;;;;;5009021;28;20038;-80
2023/06/08 07:14:56;;;;;;;0.20;0.10;;;14.90;99.90;;;;;;5013267;28;20103;-78
2023/06/08 07:17:22;;;;;;;0.25;0.20;;;14.90;99.90;;;;;;5014016;28;20053;-81
2023/06/08 07:19:48;;;;;;;0.30;0.25;;;15.00;99.90;;;;;;5013438;28;20045;-79
2023/06/08 07:22:14;;;;;;;0.22;0.22;;;15.10;99.90;;;;;;5004738;28;20041;-80
2023/06/08 07:24:40;;;;;;;2.53;0.70;;;15.20;99.90;;;;;;5010301;28;20556;-79
2023/06/08 07:27:06;;;;;;;0.40;0.28;;;15.30;99.90;;;;;;5009388;28;20065;-80
2023/06/08 07:29:33;;;;;;;0.40;0.32;;;15.40;99.90;;;;;;4996851;28;20041;-75
2023/06/08 07:31:59;;;;;;;0.40;0.40;;;15.40;99.90;;;;;;5010626;28;20059;-79
2023/06/08 07:34:26;;;;;;;0.38;0.15;;;15.40;99.90;;;;;;4993497;28;20038;-79
2023/06/08 07:36:52;;;;;;;0.20;0.20;;;15.50;99.90;;;;;;5005521;28;20498;-80
2023/06/08 07:39:18;;;;;;;0.20;0.17;;;15.80;99.90;;;;;;5008571;28;20361;-79
2023/06/08 07:41:43;;;;;;;0.00;0.00;;;16.00;99.90;;;;;;4995155;28;20047;-80
2023/06/08 07:44:09;;;;;;;0.00;0.00;;;16.20;99.90;;;;;;5014671;28;20132;-78
2023/06/08 07:46:35;;;;;;;0.52;0.40;;;16.30;99.90;;;;;;5011198;28;20450;-80
2023/06/08 07:49:01;;;;;;;0.10;0.10;;;16.40;99.90;;;;;;5014321;28;20370;-79
2023/06/08 07:51:26;;;;;;;0.30;0.30;;;16.40;99.90;;;;;;4997636;28;20034;-80
2023/06/08 07:53:52;;;;;;;0.30;0.30;;;16.50;99.90;;;;;;5011979;28;20038;-79
2023/06/08 07:56:18;;;;;;;0.00;0.00;;;16.50;99.90;;;;;;5011695;28;20556;-82
2023/06/08 07:58:43;;;;;;;0.43;0.43;;;16.70;99.90;;;;;;5012276;28;20123;-79
2023/06/08 08:01:09;;;;;;;0.32;0.28;;;16.80;99.90;;;;;;5006239;28;20534;-77
2023/06/08 08:03:38;;;;;;;0.03;0.00;;;17.00;99.90;;;;;;5011066;28;20034;-79
2023/06/08 08:06:04;;;;;;;1.40;0.60;;;17.00;99.90;;;;;;5010017;28;20034;-76
2023/06/08 08:08:30;;;;;;;0.17;0.10;;;17.00;99.90;;;;;;5011176;28;20242;-77
2023/06/08 08:10:56;;;;;;;0.22;0.20;;;17.00;99.90;;;;;;5003842;28;20487;-78
2023/06/08 08:13:22;;;;;;;0.00;0.00;;;17.00;99.90;;;;;;5014222;28;20610;-78
2023/06/08 08:15:47;;;;;;;0.30;0.30;;;17.30;99.90;;;;;;5013706;28;20053;-76
2023/06/08 08:18:13;;;;;;;0.32;0.05;;;17.60;99.90;;;;;;4995511;28;20042;-77
2023/06/08 08:20:39;;;;;;;0.25;0.20;;;17.90;99.90;;;;;;5012842;28;20092;-78
2023/06/08 08:23:05;;;;;;;0.60;0.38;;;18.10;99.90;;;;;;5015268;28;20560;-78
2023/06/08 08:25:31;;;;;;;0.15;0.13;;;18.10;99.90;;;;;;5014620;28;20120;-78
2023/06/08 08:27:57;;;;;;;0.15;0.10;;;18.10;99.90;;;;;;5008140;28;20487;-79
2023/06/08 08:30:23;;;;;;;0.30;0.25;;;18.10;99.90;;;;;;5013433;28;20036;-77
2023/06/08 08:32:49;;;;;;;0.15;0.08;;;17.80;99.90;;;;;;4996068;28;20069;-78
2023/06/08 08:35:15;;;;;;;0.28;0.22;;;17.70;99.90;;;;;;5013310;28;20121;-79
2023/06/08 08:37:42;;;;;;;1.17;0.30;;;17.80;99.90;;;;;;5005929;28;20482;-79
2023/06/08 08:40:09;;;;;;;0.55;0.30;;;18.10;99.90;;;;;;5012583;28;20399;-80
2023/06/08 08:42:41;;;;;;;1.38;0.30;;;18.40;99.90;;;;;;5012936;28;20043;-78
2023/06/08 08:45:09;;;;;;;3.42;0.30;;;18.60;99.90;;;;;;5012541;28;20077;-80
2023/06/08 08:47:37;;;;;;;0.00;0.00;;;18.70;99.90;;;;;;5007472;28;20050;-79
2023/06/08 08:50:06;;;;;;;0.00;0.00;;;18.70;99.90;;;;;;5010224;28;20466;-78
2023/06/08 08:52:37;;;;;;;1.00;0.55;;;18.60;99.90;;;;;;5011533;28;20041;-80
2023/06/08 08:55:06;;;;;;;0.10;0.05;;;18.50;99.90;;;;;;4997947;28;20108;-81
2023/06/08 08:57:32;;;;;;;0.30;0.22;;;18.40;99.90;;;;;;5009768;28;20056;-76
2023/06/08 08:59:58;;;;;;;0.40;0.30;;;18.30;99.90;;;;;;5013221;28;20037;-79
2023/06/08 09:02:25;;;;;;;0.60;0.20;;;18.20;99.90;;;;;;5012861;28;20038;-78
2023/06/08 09:04:54;;;;;;;0.10;0.10;;;18.30;99.90;;;;;;5013851;28;20057;-79
2023/06/08 09:07:24;;;;;;;0.08;0.03;;;18.50;99.90;;;;;;5010164;28;20474;-78
2023/06/08 09:10:12;;;;;;;0.63;0.20;;;18.90;99.90;;;;;;5010850;28;20100;-79
2023/06/08 09:12:43;;;;;;;0.20;0.00;;;19.20;99.90;;;;;;5010553;28;20097;-78
2023/06/08 09:15:11;;;;;;;1.08;0.45;;;19.40;99.90;;;;;;5011778;28;20045;-78
2023/06/08 09:17:38;;;;;;;0.00;0.00;;;19.60;99.90;;;;;;5009339;28;20063;-77
2023/06/08 09:20:08;;;;;;;1.17;0.40;;;20.00;99.90;;;;;;5009092;28;20045;-78
2023/06/08 09:22:36;;;;;;;0.00;0.00;;;20.20;99.90;;;;;;5025831;28;20392;-77
2023/06/08 09:25:03;;;;;;;0.00;0.00;;;20.50;99.90;;;;;;5006279;28;20361;-79
2023/06/08 09:27:33;;;;;;;0.25;0.13;;;20.70;99.90;;;;;;5011293;28;20060;-80
2023/06/08 09:30:02;;;;;;;0.88;0.20;;;20.80;99.90;;;;;;4996428;28;20041;-80
2023/06/08 09:32:32;;;;;;;0.10;0.10;;;21.00;99.90;;;;;;5008833;28;20041;-80
2023/06/08 09:35:03;;;;;;;0.20;0.10;;;21.30;99.90;;;;;;4992997;28;20053;-82
2023/06/08 09:37:33;;;;;;;0.30;0.13;;;21.50;99.90;;;;;;5011520;28;20072;-79
2023/06/08 09:40:00;;;;;;;0.50;0.47;;;21.40;99.80;;;;;;5009576;28;20045;-79
2023/06/08 09:42:50;;;;;;;0.08;0.00;;;21.40;99.90;;;;;;4995187;28;20051;-78
2023/06/08 09:45:17;;;;;;;0.88;0.55;;;21.40;99.20;;;;;;5012799;28;20045;-80
2023/06/08 09:47:43;;;;;;;0.38;0.25;;;21.50;99.90;;;;;;5011794;28;20061;-80
2023/06/08 09:50:11;;;;;;;0.60;0.25;;;21.60;98.40;;;;;;5012970;28;20556;-79
2023/06/08 09:52:38;;;;;;;1.10;0.40;;;21.70;99.50;;;;;;4997816;28;20095;-81
2023/06/08 09:55:05;;;;;;;0.10;0.10;;;21.60;98.60;;;;;;5011724;28;20041;-81
2023/06/08 09:57:37;;;;;;;0.30;0.30;;;21.70;99.90;;;;;;5008510;28;20042;-80
2023/06/08 10:00:25;;;;;;;0.60;0.20;;;21.80;99.90;;;;;;5013090;28;20579;-80
2023/06/08 10:03:09;;;;;;;0.40;0.30;;;21.90;99.30;;;;;;5011829;28;20093;-78
2023/06/08 10:05:38;;;;;;;0.35;0.35;;;22.10;97.20;;;;;;5014032;28;20045;-85
2023/06/08 10:08:07;;;;;;;1.15;0.57;;;22.00;96.30;;;;;;5012672;28;20043;-82
2023/06/08 10:10:37;;;;;;;2.25;0.28;;;21.90;95.80;;;;;;5010871;28;20077;-81
2023/06/08 10:13:05;;;;;;;0.10;0.10;;;22.10;98.00;;;;;;5009668;28;20037;-81
2023/06/08 10:15:32;;;;;;;0.10;0.10;;;22.30;94.50;;;;;;5011268;28;20041;-81
2023/06/08 10:17:59;;;;;;;0.32;0.20;;;22.50;97.60;;;;;;4994269;28;20037;-74
2023/06/08 10:20:26;;;;;;;0.40;0.25;;;22.70;94.00;;;;;;5011832;28;20048;-80
2023/06/08 10:22:52;;;;;;;0.98;0.22;;;22.70;92.70;;;;;;4991700;28;20061;-76
2023/06/08 10:25:18;;;;;;;0.75;0.52;;;22.60;91.20;;;;;;5010692;28;20041;-80
2023/06/08 10:27:51;;;;;;;0.22;0.17;;;22.60;93.40;;;;;;5009818;28;20079;-81
2023/06/08 10:30:39;;;;;;;0.10;0.10;;;22.80;93.10;;;;;;5011645;28;20044;-81
2023/06/08 10:33:15;;;;;;;0.03;0.03;;;22.90;92.50;;;;;;5006361;28;20052;-76
2023/06/08 10:35:42;;;;;;;0.20;0.10;;;23.10;90.50;;;;;;4998676;28;20049;-81
2023/06/08 10:38:16;;;;;;;0.05;0.00;;;23.00;90.30;;;;;;4995503;28;20045;-81
2023/06/08 10:40:50;;;;;;;0.20;0.10;;;22.90;92.00;;;;;;5011833;28;20046;-81
2023/06/08 10:43:17;;;;;;;0.03;0.03;;;23.00;91.80;;;;;;4996062;28;20084;-79
2023/06/08 10:45:46;;;;;;;1.38;0.40;;;23.20;91.30;;;;;;5009714;28;20418;-83
2023/06/08 10:48:16;;;;;;;0.88;0.52;;;23.30;91.80;;;;;;5009486;28;20440;-83
2023/06/08 10:50:46;;;;;;;0.70;0.45;;;23.60;91.50;;;;;;5010450;28;20037;-81
2023/06/08 10:53:12;;;;;;;0.22;0.10;;;23.60;90.30;;;;;;5006250;28;20140;-81
2023/06/08 10:55:37;;;;;;;19.55;1.27;;;23.80;89.90;;;;;;5010598;28;20462;-84
2023/06/08 10:58:18;;;;;;;0.20;0.10;;;23.90;88.10;;;;;;5009347;28;20124;-81
2023/06/08 11:00:46;;;;;;;0.15;0.10;;;24.00;85.80;;;;;;5011151;28;20045;-80
2023/06/08 11:03:14;;;;;;;0.13;0.13;;;24.00;84.70;;;;;;5009897;28;20053;-82
2023/06/08 11:05:43;;;;;;;0.20;0.20;;;24.00;88.20;;;;;;5011443;28;20029;-82
2023/06/08 11:08:10;;;;;;;4.25;0.88;;;24.20;84.40;;;;;;5010781;28;20154;-84
2023/06/08 11:10:39;;;;;;;1.20;0.43;;;24.30;87.20;;;;;;5011504;28;20485;-83
2023/06/08 11:13:10;;;;;;;11.10;0.60;;;24.30;85.20;;;;;;5010406;28;20049;-84
2023/06/08 11:15:40;;;;;;;0.68;0.40;;;24.20;80.80;;;;;;5008540;28;20045;-84
2023/06/08 11:18:08;;;;;;;1.50;0.43;;;24.20;82.10;;;;;;5005237;28;20548;-81
2023/06/08 11:20:39;;;;;;;1.30;0.22;;;24.10;81.20;;;;;;5010363;28;20051;-83
2023/06/08 11:23:07;;;;;;;1.00;0.52;;;24.00;83.70;;;;;;5011331;28;20478;-84
2023/06/08 11:25:34;;;;;;;0.00;0.00;;;24.10;84.50;;;;;;5003972;28;20128;-82
2023/06/08 11:28:01;;;;;;;1.95;0.30;;;24.10;79.30;;;;;;5007758;28;20129;-79
2023/06/08 11:30:35;;;;;;;0.38;0.20;;;24.30;80.90;;;;;;5007902;28;20622;-86
2023/06/08 11:33:06;;;;;;;0.20;0.10;;;24.40;79.70;;;;;;5008705;28;20117;-79
2023/06/08 11:35:33;;;;;;;0.25;0.17;;;24.40;81.90;;;;;;4997805;28;20053;-83
2023/06/08 11:37:59;;;;;;;0.40;0.20;;;24.30;80.30;;;;;;5010518;28;20070;-76
2023/06/08 11:40:26;;;;;;;0.10;0.10;;;24.10;77.10;;;;;;5015671;28;20065;-81
2023/06/08 11:42:52;;;;;;;1.48;0.30;;;24.20;80.70;;;;;;5011274;28;20081;-82
2023/06/08 11:45:18;;;;;;;0.65;0.15;;;24.40;82.20;;;;;;5016589;28;20072;-83
2023/06/08 11:47:44;;;;;;;0.85;0.20;;;24.50;79.90;;;;;;4989875;28;20089;-83
2023/06/08 11:50:14;;;;;;;0.73;0.08;;;24.70;80.00;;;;;;5008914;28;20041;-80
2023/06/08 11:52:42;;;;;;;0.38;0.28;;;24.80;78.00;;;;;;5008043;28;20049;-84
2023/06/08 11:55:15;;;;;;;0.20;0.08;;;24.80;78.50;;;;;;4998682;28;20116;-83
2023/06/08 11:57:59;;;;;;;0.20;0.20;;;24.90;81.20;;;;;;5009455;28;20045;-82
2023/06/08 12:00:29;;;;;;;0.40;0.20;;;25.20;80.60;;;;;;5012305;28;20049;-83
2023/06/08 12:02:56;;;;;;;1.17;0.32;;;25.20;77.70;;;;;;5009747;28;20045;-81
2023/06/08 12:05:43;;;;;;;0.10;0.10;;;25.10;80.30;;;;;;5013371;28;20049;-83
2023/06/08 12:08:14;;;;;;;0.15;0.10;;;25.10;82.60;;;;;;5013137;28;20493;-79
2023/06/08 12:10:46;;;;;;;0.28;0.20;;;25.20;80.50;;;;;;5012370;28;20127;-84
2023/06/08 12:13:15;;;;;;;1.98;0.38;;;25.00;78.00;;;;;;5006715;28;20053;-79
2023/06/08 12:15:49;;;;;;;1.35;0.40;;;24.90;80.90;;;;;;5011736;28;20034;-78
2023/06/08 12:18:16;;;;;;;0.10;0.10;;;24.70;77.80;;;;;;5013735;28;20354;-77
2023/06/08 12:20:43;;;;;;;1.52;0.55;;;24.80;78.50;;;;;;5009577;28;20094;-79
2023/06/08 12:23:09;;;;;;;0.20;0.05;;;24.80;80.10;;;;;;5012047;28;20036;-79
2023/06/08 12:25:39;;;;;;;0.68;0.22;;;24.80;79.90;;;;;;5013999;28;20113;-79
2023/06/08 12:28:05;;;;;;;1.00;0.47;;;24.70;80.10;;;;;;5012342;28;20382;-79
2023/06/08 12:30:31;;;;;;;0.20;0.05;;;24.80;82.40;;;;;;5010900;28;20044;-79
2023/06/08 12:32:58;;;;;;;0.10;0.10;;;25.00;79.90;;;;;;5012659;28;20069;-78
2023/06/08 12:35:24;;;;;;;0.20;0.10;;;25.10;80.30;;;;;;5009800;28;20038;-81
2023/06/08 12:37:50;;;;;;;1.13;0.30;;;25.10;79.90;;;;;;4992564;28;20569;-81
2023/06/08 12:40:20;;;;;;;1.40;0.32;;;25.00;78.80;;;;;;5014208;28;20048;-81
2023/06/08 12:42:49;;;;;;;0.20;0.10;;;25.20;83.00;;;;;;4987373;28;20072;-79
2023/06/08 12:45:16;;;;;;;0.30;0.25;;;25.30;78.20;;;;;;5008375;28;20201;-80
2023/06/08 12:47:41;;;;;;;0.45;0.30;;;25.40;80.30;;;;;;4990566;28;20573;-74